Terminal Aerodrome Forecast
Issued by NWS

Current Version | Previous Version | Graphics & Text | Print | Product List | Glossary On
Versions: 1 2 3 4 5 6 7 8 9 10 11 12 13 14 15 16 17 18 19 20 21 22 23 24 25 26
000
FTUS41 KILN 271900 AAA
TAFLUK
TAF AMD
KLUK 271930Z 2720/2818 22012G20KT P6SM SCT045 BKN250
     FM272100 22010G18KT P6SM VCTS SCT045CB BKN250
     FM280000 24010KT P6SM SCT050
     FM280500 VRB03KT 5SM BR FEW050
     FM280900 00000KT 1/2SM FG SCT002
     FM281300 VRB02KT 2SM BR SCT010
     FM281500 08004KT P6SM SCT040=

USA.gov is the U.S. government's official web portal to all federal, state and local government web resources and services.